createdAt,value
2019-02-15T00:01:44.846Z,99.90
2019-02-15T00:04:14.766Z,99.90
2019-02-15T00:06:44.724Z,99.90
2019-02-15T00:09:14.637Z,99.90
2019-02-15T00:11:46.872Z,99.90
2019-02-15T00:14:16.790Z,99.90
2019-02-15T00:16:46.796Z,99.90
2019-02-15T00:19:29.051Z,99.90
2019-02-15T00:21:58.959Z,99.90
2019-02-15T00:24:28.895Z,99.90
2019-02-15T00:26:58.894Z,99.90
2019-02-15T00:29:28.811Z,99.90
2019-02-15T00:31:58.847Z,99.90
2019-02-15T00:34:28.975Z,99.90
2019-02-15T00:36:58.899Z,99.90
2019-02-15T00:39:28.901Z,99.90
2019-02-15T00:41:58.888Z,99.90
2019-02-15T00:44:28.802Z,99.90
2019-02-15T00:47:33.104Z,99.90
2019-02-15T00:50:27.983Z,99.90
2019-02-15T00:53:16.952Z,99.90
2019-02-15T00:55:56.543Z,99.90
2019-02-15T00:58:51.506Z,99.90
2019-02-15T01:01:43.219Z,99.90
2019-02-15T01:04:19.653Z,99.90
2019-02-15T01:06:59.348Z,99.90
2019-02-15T01:09:51.596Z,99.90
2019-02-15T01:12:32.587Z,99.90
2019-02-15T01:15:02.940Z,99.90
2019-02-15T01:17:32.826Z,99.90
2019-02-15T01:20:02.920Z,99.90
2019-02-15T01:22:32.934Z,99.90
2019-02-15T01:25:03.108Z,99.90
2019-02-15T01:27:44.231Z,99.90
2019-02-15T01:30:27.448Z,99.90
2019-02-15T01:33:22.232Z,99.90
2019-02-15T01:36:10.040Z,99.90
2019-02-15T01:39:01.825Z,99.90
2019-02-15T01:41:38.208Z,99.90
2019-02-15T01:44:14.355Z,99.90
2019-02-15T01:46:58.150Z,99.90
2019-02-15T01:49:28.055Z,99.90
2019-02-15T01:51:58.106Z,99.90
2019-02-15T01:54:28.016Z,99.90
2019-02-15T01:56:57.927Z,99.90
2019-02-15T01:59:27.834Z,99.90
2019-02-15T02:01:57.824Z,99.90
2019-02-15T02:04:27.711Z,99.90
2019-02-15T02:06:57.639Z,99.90
2019-02-15T02:09:27.523Z,99.90
2019-02-15T02:11:57.593Z,99.90
2019-02-15T02:14:31.266Z,99.90
2019-02-15T02:17:01.271Z,99.90
2019-02-15T02:19:31.244Z,99.90
2019-02-15T02:22:01.325Z,99.90
2019-02-15T02:24:31.324Z,99.90
2019-02-15T02:27:01.239Z,99.90
2019-02-15T02:29:31.121Z,99.90
2019-02-15T02:32:01.058Z,99.90
2019-02-15T02:34:30.946Z,99.90
2019-02-15T02:37:00.956Z,99.90
2019-02-15T02:39:30.951Z,99.90
2019-02-15T02:42:00.900Z,99.90
2019-02-15T02:44:30.860Z,99.90
2019-02-15T02:47:00.808Z,99.90
2019-02-15T02:49:30.706Z,99.90
2019-02-15T02:52:00.628Z,99.90
2019-02-15T02:54:30.538Z,99.90
2019-02-15T02:57:00.523Z,99.90
2019-02-15T02:59:30.555Z,99.90
2019-02-15T03:02:00.543Z,99.90
2019-02-15T03:04:32.372Z,99.90
2019-02-15T03:07:02.305Z,99.90
2019-02-15T03:09:32.202Z,99.90
2019-02-15T03:12:02.119Z,99.90
2019-02-15T03:14:32.194Z,99.90
2019-02-15T03:17:02.136Z,99.90
2019-02-15T03:19:32.109Z,99.90
2019-02-15T03:22:02.019Z,99.90
2019-02-15T03:24:31.993Z,99.90
2019-02-15T03:27:01.930Z,99.90
2019-02-15T03:29:31.893Z,99.90
2019-02-15T03:32:01.797Z,99.90
2019-02-15T03:34:31.676Z,99.90
2019-02-15T03:37:26.495Z,99.90
2019-02-15T03:40:14.131Z,99.90
2019-02-15T03:42:44.180Z,99.90
2019-02-15T03:45:15.793Z,99.90
2019-02-15T03:47:45.725Z,99.90
2019-02-15T03:50:15.642Z,99.90
2019-02-15T03:52:45.551Z,99.90
2019-02-15T03:55:15.432Z,99.90
2019-02-15T03:57:45.345Z,99.90
2019-02-15T04:00:15.314Z,99.90
2019-02-15T04:02:45.253Z,99.90
2019-02-15T04:05:15.158Z,99.90
2019-02-15T04:07:45.141Z,99.90
2019-02-15T04:10:15.043Z,99.90
2019-02-15T04:12:44.957Z,99.90
2019-02-15T04:15:14.942Z,99.90
2019-02-15T04:17:44.886Z,99.90
2019-02-15T04:20:14.771Z,99.90
2019-02-15T04:22:44.767Z,99.90
2019-02-15T04:25:14.728Z,99.90
2019-02-15T04:27:44.633Z,99.90
2019-02-15T04:30:14.646Z,99.90
2019-02-15T04:32:44.840Z,99.90
2019-02-15T04:35:14.822Z,99.90
2019-02-15T04:37:44.785Z,99.90
2019-02-15T04:40:14.694Z,99.90
2019-02-15T04:42:44.600Z,99.90
2019-02-15T04:45:14.610Z,99.90
2019-02-15T04:47:45.231Z,99.90
2019-02-15T04:50:15.237Z,99.90
2019-02-15T04:52:45.540Z,99.90
2019-02-15T04:55:15.440Z,99.90
2019-02-15T04:57:45.453Z,99.90
2019-02-15T05:00:15.451Z,99.90
2019-02-15T05:02:47.033Z,99.90
2019-02-15T05:05:17.010Z,99.90
2019-02-15T05:07:46.853Z,99.90
2019-02-15T05:10:16.778Z,99.90
2019-02-15T05:12:46.765Z,99.90
2019-02-15T05:15:16.776Z,99.90
2019-02-15T05:17:46.759Z,99.90
2019-02-15T05:20:16.677Z,99.90
2019-02-15T05:22:49.024Z,99.90
2019-02-15T05:25:18.972Z,99.90
2019-02-15T05:27:48.940Z,99.90
2019-02-15T05:30:18.892Z,99.90
2019-02-15T05:32:48.804Z,99.90
2019-02-15T05:35:18.809Z,99.90
2019-02-15T05:37:48.702Z,99.90
2019-02-15T05:40:18.656Z,99.90
2019-02-15T05:42:48.624Z,99.90
2019-02-15T05:45:18.540Z,99.90
2019-02-15T05:47:48.596Z,99.90
2019-02-15T05:50:18.710Z,99.90
2019-02-15T05:52:48.673Z,99.90
2019-02-15T05:55:18.766Z,99.90
2019-02-15T05:57:48.856Z,99.90
2019-02-15T06:00:18.970Z,99.90
2019-02-15T06:02:48.865Z,99.90
2019-02-15T06:05:18.782Z,99.90
2019-02-15T06:07:48.780Z,99.90
2019-02-15T06:10:18.733Z,99.90
2019-02-15T06:12:48.746Z,99.90
2019-02-15T06:15:18.674Z,99.90
2019-02-15T06:17:48.678Z,99.90
2019-02-15T06:20:18.631Z,99.90
2019-02-15T06:22:48.634Z,99.90
2019-02-15T06:25:18.578Z,99.90
2019-02-15T06:27:48.516Z,99.90
2019-02-15T06:30:18.437Z,99.90
2019-02-15T06:32:48.346Z,99.90
2019-02-15T06:35:18.275Z,99.90
2019-02-15T06:37:48.179Z,99.90
2019-02-15T06:40:18.188Z,99.90
2019-02-15T06:42:48.174Z,99.90
2019-02-15T06:45:24.432Z,99.90
2019-02-15T06:47:49.802Z,99.90
2019-02-15T06:50:19.815Z,99.90
2019-02-15T06:52:49.893Z,99.90
2019-02-15T06:55:19.806Z,99.90
2019-02-15T06:57:49.786Z,99.90
2019-02-15T07:00:37.708Z,99.90
2019-02-15T07:03:17.897Z,99.90
2019-02-15T07:05:47.813Z,99.90
2019-02-15T07:08:17.859Z,99.90
2019-02-15T07:10:48.046Z,99.90
2019-02-15T07:13:18.140Z,99.90
2019-02-15T07:15:48.094Z,99.90
2019-02-15T07:18:17.982Z,99.90
2019-02-15T07:20:47.974Z,99.90
2019-02-15T07:23:17.942Z,99.90
2019-02-15T07:25:47.851Z,99.90
2019-02-15T07:28:18.974Z,99.90
2019-02-15T07:30:48.997Z,99.90
2019-02-15T07:33:19.656Z,99.90
2019-02-15T07:35:49.560Z,99.90
2019-02-15T07:38:19.543Z,99.90
2019-02-15T07:40:49.495Z,99.90
2019-02-15T07:43:19.487Z,96.60
2019-02-15T07:45:50.899Z,99.90
2019-02-15T07:48:20.926Z,99.90
2019-02-15T07:50:50.845Z,97.10
2019-02-15T07:53:20.872Z,99.90
2019-02-15T07:55:50.799Z,99.90
2019-02-15T07:58:20.719Z,99.90
2019-02-15T08:00:50.647Z,99.90
2019-02-15T08:03:20.568Z,99.90
2019-02-15T08:05:50.657Z,99.90
2019-02-15T08:08:20.568Z,99.90
2019-02-15T08:10:50.707Z,99.90
2019-02-15T08:13:20.886Z,99.90
2019-02-15T08:15:52.222Z,99.90
2019-02-15T08:18:22.388Z,99.90
2019-02-15T08:20:52.601Z,99.90
2019-02-15T08:23:22.556Z,99.90
2019-02-15T08:25:52.552Z,99.90
2019-02-15T08:28:22.599Z,99.90
2019-02-15T08:30:52.741Z,99.90
2019-02-15T08:33:22.719Z,99.90
2019-02-15T08:35:52.693Z,99.90
2019-02-15T08:38:22.656Z,92.10
2019-02-15T08:40:52.604Z,97.40
2019-02-15T08:43:22.621Z,99.90
2019-02-15T08:46:00.513Z,94.80
2019-02-15T08:48:24.207Z,90.20
2019-02-15T08:50:54.207Z,89.50
2019-02-15T08:53:24.730Z,88.80
2019-02-15T08:55:54.940Z,87.60
2019-02-15T08:58:24.876Z,91.80
2019-02-15T09:00:54.782Z,88.10
2019-02-15T09:03:24.779Z,95.10
2019-02-15T09:05:54.668Z,99.90
2019-02-15T09:08:24.611Z,97.60
2019-02-15T09:10:54.616Z,97.20
2019-02-15T09:13:24.573Z,95.90
2019-02-15T09:15:55.412Z,95.60
2019-02-15T09:18:25.417Z,99.90
2019-02-15T09:20:55.448Z,99.80
2019-02-15T09:23:25.388Z,93.40
2019-02-15T09:25:55.428Z,91.70
2019-02-15T09:31:21.446Z,99.90
2019-02-15T09:33:52.578Z,93.20
2019-02-15T09:36:22.686Z,92.10
2019-02-15T09:38:52.687Z,92.60
2019-02-15T09:41:22.671Z,96.40
2019-02-15T09:46:22.366Z,98.70
2019-02-15T09:48:52.502Z,99.90
2019-02-15T09:51:22.540Z,99.90
2019-02-15T09:53:52.573Z,99.90
2019-02-15T09:56:23.064Z,99.90
2019-02-15T09:58:52.985Z,99.90
2019-02-15T10:01:22.938Z,99.90
2019-02-15T10:03:52.866Z,99.90
2019-02-15T10:06:22.776Z,99.90
2019-02-15T10:08:52.740Z,99.90
2019-02-15T10:11:22.774Z,99.90
2019-02-15T10:13:54.562Z,99.90
2019-02-15T10:16:28.995Z,99.90
2019-02-15T10:18:56.302Z,99.90
2019-02-15T10:21:26.403Z,99.90
2019-02-15T10:23:56.959Z,99.90
2019-02-15T10:26:26.958Z,99.90
2019-02-15T10:28:56.896Z,99.90
2019-02-15T10:31:31.607Z,99.90
2019-02-15T10:34:02.306Z,99.90
2019-02-15T10:36:32.302Z,99.90
2019-02-15T10:39:03.404Z,99.90
2019-02-15T10:41:33.424Z,99.90
2019-02-15T10:44:03.358Z,99.90
2019-02-15T10:46:37.893Z,99.90
2019-02-15T10:49:05.020Z,99.90
2019-02-15T10:51:35.172Z,99.90
2019-02-15T10:54:05.150Z,99.90
2019-02-15T10:56:35.078Z,99.90
2019-02-15T10:59:05.068Z,99.90
2019-02-15T11:01:34.957Z,99.90
2019-02-15T11:04:05.095Z,99.90
2019-02-15T11:06:35.107Z,99.90
2019-02-15T11:09:05.989Z,99.90
2019-02-15T11:11:36.082Z,99.90
2019-02-15T11:14:06.142Z,99.90
2019-02-15T11:16:36.223Z,99.90
2019-02-15T11:19:06.145Z,99.90
2019-02-15T11:21:36.347Z,99.90
2019-02-15T11:24:06.547Z,99.90
2019-02-15T11:26:36.585Z,99.90
2019-02-15T11:29:08.327Z,99.90
2019-02-15T11:31:38.224Z,99.90
2019-02-15T11:34:08.168Z,99.90
2019-02-15T11:36:38.069Z,99.90
2019-02-15T11:39:11.116Z,99.90
2019-02-15T11:41:41.100Z,99.90
2019-02-15T11:44:11.129Z,99.90
2019-02-15T11:46:41.022Z,99.90
2019-02-15T11:49:10.971Z,99.90
2019-02-15T11:51:40.957Z,99.90
2019-02-15T11:54:11.007Z,99.90
2019-02-15T11:56:41.009Z,99.90
2019-02-15T11:59:10.985Z,99.90
2019-02-15T12:01:40.929Z,99.90
2019-02-15T12:04:10.925Z,99.90
2019-02-15T12:06:40.822Z,99.90
2019-02-15T12:09:10.853Z,99.90
2019-02-15T12:11:40.887Z,99.90
2019-02-15T12:14:10.819Z,99.90
2019-02-15T12:16:40.759Z,99.90
2019-02-15T12:19:10.716Z,99.90
2019-02-15T12:21:40.638Z,99.90
2019-02-15T12:24:10.699Z,99.90
2019-02-15T12:26:40.623Z,99.90
2019-02-15T12:29:10.612Z,99.90
2019-02-15T12:31:40.593Z,99.90
2019-02-15T12:34:10.597Z,99.90
2019-02-15T12:36:40.544Z,99.90
2019-02-15T12:39:12.750Z,99.90
2019-02-15T12:41:41.979Z,99.90
2019-02-15T12:44:11.871Z,99.90
2019-02-15T12:46:41.803Z,99.90
2019-02-15T12:49:11.833Z,99.90
2019-02-15T12:51:41.760Z,99.90
2019-02-15T12:54:11.727Z,99.90
2019-02-15T12:56:41.902Z,99.90
2019-02-15T12:59:11.842Z,99.90
2019-02-15T13:01:41.847Z,99.90
2019-02-15T13:04:11.733Z,99.90
2019-02-15T13:06:43.119Z,99.90
2019-02-15T13:09:13.325Z,99.90
2019-02-15T13:11:44.722Z,99.90
2019-02-15T13:14:14.612Z,99.90
2019-02-15T13:16:44.549Z,99.90
2019-02-15T13:19:14.487Z,99.90
2019-02-15T13:21:44.447Z,99.90
2019-02-15T13:24:14.375Z,99.90
2019-02-15T13:26:44.299Z,99.90
2019-02-15T13:29:14.260Z,99.90
2019-02-15T13:31:44.196Z,99.90
2019-02-15T13:34:14.103Z,99.90
2019-02-15T13:36:44.025Z,99.90
2019-02-15T13:39:13.899Z,99.90
2019-02-15T13:41:43.820Z,99.90
2019-02-15T13:44:13.731Z,99.90
2019-02-15T13:46:43.627Z,99.90
2019-02-15T13:49:13.536Z,99.90
2019-02-15T13:51:43.451Z,99.90
2019-02-15T13:54:13.437Z,99.90
2019-02-15T13:56:43.357Z,99.90
2019-02-15T13:59:13.246Z,99.90
2019-02-15T14:01:43.224Z,99.90
2019-02-15T14:04:13.163Z,99.90
2019-02-15T14:06:43.076Z,99.90
2019-02-15T14:09:13.066Z,99.90
2019-02-15T14:11:42.972Z,99.90
2019-02-15T14:14:13.254Z,99.90
2019-02-15T14:16:43.187Z,99.90
2019-02-15T14:19:13.068Z,99.90
2019-02-15T14:21:44.669Z,99.90
2019-02-15T14:24:14.722Z,99.90
2019-02-15T14:26:44.648Z,99.90
2019-02-15T14:29:14.543Z,99.40
2019-02-15T14:31:44.533Z,99.90
2019-02-15T14:34:14.437Z,99.90
2019-02-15T14:36:44.455Z,99.90
2019-02-15T14:39:14.439Z,99.90
2019-02-15T14:41:44.358Z,99.90
2019-02-15T14:44:14.331Z,99.90
2019-02-15T14:46:44.246Z,99.90
2019-02-15T14:49:14.143Z,99.90
2019-02-15T14:51:44.067Z,99.90
2019-02-15T14:54:13.968Z,99.90
2019-02-15T14:56:43.877Z,99.90
2019-02-15T14:59:13.764Z,99.90
2019-02-15T15:01:43.815Z,99.90
2019-02-15T15:04:13.729Z,99.90
2019-02-15T15:06:43.741Z,99.90
2019-02-15T15:09:13.634Z,99.90
2019-02-15T15:11:43.555Z,99.90
2019-02-15T15:14:13.466Z,99.90
2019-02-15T15:16:43.544Z,99.90
2019-02-15T15:19:13.497Z,99.90
2019-02-15T15:21:43.389Z,99.90
2019-02-15T15:24:13.284Z,99.90
2019-02-15T15:26:43.235Z,99.90
2019-02-15T15:29:13.223Z,99.90
2019-02-15T15:31:43.141Z,99.90
2019-02-15T15:34:13.020Z,99.90
2019-02-15T15:36:43.077Z,99.90
2019-02-15T15:39:13.117Z,99.90
2019-02-15T15:41:43.043Z,99.90
2019-02-15T15:44:13.479Z,99.90
2019-02-15T15:46:43.601Z,99.90
2019-02-15T15:49:13.590Z,99.90
2019-02-15T15:51:43.663Z,99.90
2019-02-15T15:54:13.681Z,99.90
2019-02-15T15:56:43.612Z,99.90
2019-02-15T15:59:13.501Z,99.90
2019-02-15T16:01:43.418Z,99.90
2019-02-15T16:04:13.397Z,99.90
2019-02-15T16:06:43.336Z,99.90
2019-02-15T16:09:13.360Z,99.90
2019-02-15T16:11:43.909Z,99.90
2019-02-15T16:14:14.206Z,99.90
2019-02-15T16:16:44.714Z,99.90
2019-02-15T16:19:14.572Z,99.90
2019-02-15T16:21:44.593Z,99.90
2019-02-15T16:24:14.453Z,99.90
2019-02-15T16:26:44.365Z,99.90
2019-02-15T16:29:14.355Z,99.90
2019-02-15T16:31:44.374Z,99.90
2019-02-15T16:34:14.414Z,99.90
2019-02-15T16:36:44.419Z,99.90
2019-02-15T16:39:14.298Z,99.90
2019-02-15T16:41:44.199Z,99.90
2019-02-15T16:44:14.173Z,99.90
2019-02-15T16:46:44.102Z,99.90
2019-02-15T16:49:14.052Z,99.90
2019-02-15T16:51:43.954Z,99.90
2019-02-15T16:54:14.167Z,99.90
2019-02-15T16:56:44.381Z,99.90
2019-02-15T16:59:14.273Z,99.90
2019-02-15T17:01:44.272Z,99.90
2019-02-15T17:04:14.242Z,99.90
2019-02-15T17:06:44.169Z,99.90
2019-02-15T17:09:18.210Z,99.90
2019-02-15T17:11:48.123Z,99.90
2019-02-15T17:14:18.123Z,99.90
2019-02-15T17:16:48.090Z,99.90
2019-02-15T17:19:17.999Z,99.90
2019-02-15T17:21:50.147Z,99.90
2019-02-15T17:24:20.227Z,99.90
2019-02-15T17:26:50.116Z,99.90
2019-02-15T17:29:20.036Z,99.90
2019-02-15T17:31:49.954Z,99.90
2019-02-15T17:34:20.475Z,99.90
2019-02-15T17:36:50.424Z,99.90
2019-02-15T17:39:20.368Z,99.90
2019-02-15T17:41:50.435Z,99.90
2019-02-15T17:44:21.744Z,99.90
2019-02-15T17:46:52.760Z,99.90
2019-02-15T17:49:22.824Z,99.90
2019-02-15T17:51:52.916Z,99.90
2019-02-15T17:54:23.106Z,99.90
2019-02-15T17:56:53.246Z,99.90
2019-02-15T17:59:23.499Z,99.90
2019-02-15T18:01:53.660Z,99.90
2019-02-15T18:04:25.311Z,99.90
2019-02-15T18:06:55.780Z,99.90
2019-02-15T18:09:25.849Z,99.90
2019-02-15T18:11:55.843Z,99.90
2019-02-15T18:14:25.937Z,99.90
2019-02-15T18:16:55.920Z,99.90
2019-02-15T18:19:25.835Z,99.90
2019-02-15T18:21:55.769Z,99.90
2019-02-15T18:24:25.752Z,99.90
2019-02-15T18:26:55.656Z,99.90
2019-02-15T18:29:25.558Z,99.90
2019-02-15T18:31:55.705Z,99.90
2019-02-15T18:34:25.677Z,99.90
2019-02-15T18:36:55.665Z,99.90
2019-02-15T18:39:26.346Z,99.90
2019-02-15T18:41:56.362Z,99.90
2019-02-15T18:44:26.357Z,99.90
2019-02-15T18:46:56.304Z,99.90
2019-02-15T18:49:26.909Z,99.90
2019-02-15T18:51:56.864Z,99.90
2019-02-15T18:54:26.966Z,99.90
2019-02-15T18:56:56.863Z,99.90
2019-02-15T18:59:26.779Z,99.90
2019-02-15T19:01:56.973Z,99.90
2019-02-15T19:04:26.957Z,99.90
2019-02-15T19:06:57.324Z,99.90
2019-02-15T19:09:27.351Z,99.90
2019-02-15T19:11:58.514Z,99.90
2019-02-15T19:14:28.480Z,99.90
2019-02-15T19:16:58.398Z,99.90
2019-02-15T19:19:29.363Z,99.90
2019-02-15T19:21:59.423Z,99.90
2019-02-15T19:24:29.334Z,99.90
2019-02-15T19:26:59.866Z,99.90
2019-02-15T19:29:29.867Z,99.90
2019-02-15T19:32:00.240Z,99.90
2019-02-15T19:34:30.120Z,99.90
2019-02-15T19:37:00.028Z,99.90
2019-02-15T19:39:29.935Z,99.90
2019-02-15T19:41:59.837Z,99.90
2019-02-15T19:44:29.820Z,99.90
2019-02-15T19:46:59.711Z,99.90
2019-02-15T19:49:38.353Z,99.90
2019-02-15T19:52:01.397Z,99.90
2019-02-15T19:54:31.400Z,99.90
2019-02-15T19:57:03.503Z,99.90
2019-02-15T19:59:33.435Z,99.90
2019-02-15T20:02:04.759Z,99.90
2019-02-15T20:04:34.755Z,99.90
2019-02-15T20:07:04.665Z,99.90
2019-02-15T20:09:34.560Z,99.90
2019-02-15T20:12:04.469Z,99.90
2019-02-15T20:14:34.415Z,99.90
2019-02-15T20:17:04.358Z,99.90
2019-02-15T20:19:34.636Z,99.90
2019-02-15T20:22:04.537Z,99.90
2019-02-15T20:24:34.592Z,99.90
2019-02-15T20:27:04.548Z,99.90
2019-02-15T20:29:34.639Z,99.90
2019-02-15T20:32:04.663Z,99.90
2019-02-15T20:34:34.582Z,99.90
2019-02-15T20:37:04.724Z,99.90
2019-02-15T20:39:34.780Z,99.90
2019-02-15T20:42:08.095Z,99.90
2019-02-15T20:44:38.015Z,99.90
2019-02-15T20:47:08.021Z,99.90
2019-02-15T20:49:38.116Z,99.90
2019-02-15T20:52:08.035Z,99.90
2019-02-15T20:54:37.926Z,99.90
2019-02-15T20:57:07.938Z,99.90
2019-02-15T20:59:39.788Z,99.90
2019-02-15T21:02:09.889Z,99.90
2019-02-15T21:04:39.871Z,99.90
2019-02-15T21:07:09.857Z,99.90
2019-02-15T21:09:39.751Z,99.90
2019-02-15T21:12:09.887Z,99.90
2019-02-15T21:14:43.387Z,99.90
2019-02-15T21:17:13.270Z,99.90
2019-02-15T21:19:43.145Z,99.90
2019-02-15T21:22:13.080Z,99.90
2019-02-15T21:24:42.960Z,99.90
2019-02-15T21:27:12.903Z,99.90
2019-02-15T21:29:42.872Z,99.90
2019-02-15T21:32:12.801Z,99.90
2019-02-15T21:34:42.751Z,99.90
2019-02-15T21:37:12.685Z,99.90
2019-02-15T21:39:43.309Z,99.90
2019-02-15T21:42:13.209Z,99.90
2019-02-15T21:44:43.114Z,99.90
2019-02-15T21:47:13.093Z,99.90
2019-02-15T21:49:43.832Z,99.90
2019-02-15T21:52:13.837Z,99.90
2019-02-15T21:54:43.804Z,99.90
2019-02-15T21:57:13.815Z,99.90
2019-02-15T21:59:43.707Z,99.90
2019-02-15T22:02:13.688Z,99.90
2019-02-15T22:04:43.600Z,99.90
2019-02-15T22:07:13.627Z,99.90
2019-02-15T22:09:43.512Z,99.90
2019-02-15T22:12:13.435Z,99.90
2019-02-15T22:14:43.339Z,99.90
2019-02-15T22:17:15.464Z,99.90
2019-02-15T22:19:45.364Z,99.90
2019-02-15T22:22:15.376Z,99.90
2019-02-15T22:24:45.269Z,99.90
2019-02-15T22:27:15.204Z,99.90
2019-02-15T22:29:45.104Z,99.90
2019-02-15T22:32:15.120Z,99.90
2019-02-15T22:34:45.114Z,99.90
2019-02-15T22:37:15.007Z,99.90
2019-02-15T22:39:44.887Z,99.90
2019-02-15T22:42:14.891Z,99.90
2019-02-15T22:44:44.785Z,99.90
2019-02-15T22:47:14.871Z,99.90
2019-02-15T22:49:44.960Z,99.90
2019-02-15T22:52:15.111Z,99.90
2019-02-15T22:54:45.175Z,99.90
2019-02-15T22:57:15.107Z,99.90
2019-02-15T22:59:45.008Z,99.90
2019-02-15T23:02:14.995Z,99.90
2019-02-15T23:04:44.891Z,99.90
2019-02-15T23:07:14.877Z,99.90
2019-02-15T23:09:44.875Z,99.90
2019-02-15T23:12:14.787Z,99.90
2019-02-15T23:14:44.689Z,99.90
2019-02-15T23:17:14.795Z,99.90
2019-02-15T23:19:44.763Z,99.90
2019-02-15T23:22:14.947Z,99.90
2019-02-15T23:24:44.905Z,99.90
2019-02-15T23:27:14.841Z,99.90
2019-02-15T23:29:44.729Z,99.90
2019-02-15T23:32:14.646Z,99.90
2019-02-15T23:34:44.548Z,99.90
2019-02-15T23:37:14.474Z,99.90
2019-02-15T23:39:44.447Z,99.90
2019-02-15T23:42:14.382Z,99.90
2019-02-15T23:44:44.287Z,99.90
2019-02-15T23:47:14.280Z,99.90
2019-02-15T23:49:44.167Z,99.90
2019-02-15T23:52:14.110Z,99.90
2019-02-15T23:54:44.105Z,99.90
2019-02-15T23:57:13.987Z,99.90
2019-02-15T23:59:43.959Z,99.90
